sensor_id;sensor_type;location;lat;lon;timestamp;P1;P4;P2;P0;N10;N4;N25;N1;N05;TS
83777;SPS30;74444;48.226;16.348;2023-12-28T00:01:21;24.9;;25.1;23.5;;;;;;
83777;SPS30;74444;48.226;16.348;2023-12-28T00:06:21;24.9;;25.7;23.2;;;;;;
83777;SPS30;74444;48.226;16.348;2023-12-28T00:11:21;25.6;;25.7;24.4;;;;;;
83777;SPS30;74444;48.226;16.348;2023-12-28T00:16:21;25.8;;26.1;24.4;;;;;;
83777;SPS30;74444;48.226;16.348;2023-12-28T00:21:21;24.4;;25.2;22.6;;;;;;
83777;SPS30;74444;48.226;16.348;2023-12-28T00:26:21;24.5;;25.0;23.1;;;;;;
83777;SPS30;74444;48.226;16.348;2023-12-28T00:31:21;25.3;;25.4;24.1;;;;;;
83777;SPS30;74444;48.226;16.348;2023-12-28T00:36:21;25.3;;26.4;23.3;;;;;;
83777;SPS30;74444;48.226;16.348;2023-12-28T00:41:21;24.6;;25.4;22.8;;;;;;
83777;SPS30;74444;48.226;16.348;2023-12-28T00:46:21;26.7;;27.8;24.5;;;;;;
83777;SPS30;74444;48.226;16.348;2023-12-28T00:51:21;24.5;;24.6;23.3;;;;;;
83777;SPS30;74444;48.226;16.348;2023-12-28T00:56:21;26.6;;27.2;24.8;;;;;;
83777;SPS30;74444;48.226;16.348;2023-12-28T01:01:21;26.5;;27.6;24.3;;;;;;
83777;SPS30;74444;48.226;16.348;2023-12-28T01:06:21;26.3;;27.0;24.4;;;;;;
83777;SPS30;74444;48.226;16.348;2023-12-28T01:11:21;25.4;;25.8;23.9;;;;;;
83777;SPS30;74444;48.226;16.348;2023-12-28T01:16:21;25.9;;26.7;24.1;;;;;;
83777;SPS30;74444;48.226;16.348;2023-12-28T01:21:21;26.6;;26.8;25.2;;;;;;
83777;SPS30;74444;48.226;16.348;2023-12-28T01:26:21;25.6;;25.7;24.4;;;;;;
83777;SPS30;74444;48.226;16.348;2023-12-28T01:31:21;26.5;;27.0;24.8;;;;;;
83777;SPS30;74444;48.226;16.348;2023-12-28T01:36:21;27.8;;28.5;25.9;;;;;;
83777;SPS30;74444;48.226;16.348;2023-12-28T01:41:21;25.9;;26.1;24.4;;;;;;
83777;SPS30;74444;48.226;16.348;2023-12-28T01:46:21;26.6;;27.7;24.5;;;;;;
83777;SPS30;74444;48.226;16.348;2023-12-28T01:51:21;27.0;;27.0;25.7;;;;;;
83777;SPS30;74444;48.226;16.348;2023-12-28T01:56:21;26.5;;27.4;24.5;;;;;;
83777;SPS30;74444;48.226;16.348;2023-12-28T02:01:21;31.5;;32.7;29.1;;;;;;
83777;SPS30;74444;48.226;16.348;2023-12-28T02:06:21;32.7;;34.1;30.1;;;;;;
83777;SPS30;74444;48.226;16.348;2023-12-28T02:11:21;33.1;;34.8;30.3;;;;;;
83777;SPS30;74444;48.226;16.348;2023-12-28T02:16:23;34.6;;36.2;31.7;;;;;;
83777;SPS30;74444;48.226;16.348;2023-12-28T02:21:21;35.1;;36.9;32.0;;;;;;
83777;SPS30;74444;48.226;16.348;2023-12-28T02:26:21;36.0;;37.5;33.2;;;;;;
83777;SPS30;74444;48.226;16.348;2023-12-28T02:31:21;33.6;;35.1;30.8;;;;;;
83777;SPS30;74444;48.226;16.348;2023-12-28T02:36:22;34.4;;35.9;31.5;;;;;;
83777;SPS30;74444;48.226;16.348;2023-12-28T02:41:21;34.8;;36.1;32.2;;;;;;
83777;SPS30;74444;48.226;16.348;2023-12-28T02:46:21;34.3;;36.0;31.4;;;;;;
83777;SPS30;74444;48.226;16.348;2023-12-28T02:51:21;34.8;;36.8;31.6;;;;;;
83777;SPS30;74444;48.226;16.348;2023-12-28T02:56:21;33.5;;35.5;30.4;;;;;;
83777;SPS30;74444;48.226;16.348;2023-12-28T03:01:21;36.3;;37.9;33.3;;;;;;
83777;SPS30;74444;48.226;16.348;2023-12-28T03:06:21;35.4;;37.0;32.5;;;;;;
83777;SPS30;74444;48.226;16.348;2023-12-28T03:11:21;35.4;;37.3;32.2;;;;;;
83777;SPS30;74444;48.226;16.348;2023-12-28T03:16:21;34.4;;35.9;31.7;;;;;;
83777;SPS30;74444;48.226;16.348;2023-12-28T03:21:21;34.1;;35.4;31.4;;;;;;
83777;SPS30;74444;48.226;16.348;2023-12-28T03:26:21;34.1;;35.7;31.2;;;;;;
83777;SPS30;74444;48.226;16.348;2023-12-28T03:31:21;35.5;;37.4;32.4;;;;;;
83777;SPS30;74444;48.226;16.348;2023-12-28T03:36:21;35.8;;37.5;32.9;;;;;;
83777;SPS30;74444;48.226;16.348;2023-12-28T03:41:21;38.2;;40.5;34.6;;;;;;
83777;SPS30;74444;48.226;16.348;2023-12-28T03:46:21;37.3;;38.9;34.3;;;;;;
83777;SPS30;74444;48.226;16.348;2023-12-28T03:51:21;37.3;;38.8;34.3;;;;;;
83777;SPS30;74444;48.226;16.348;2023-12-28T03:56:24;38.6;;40.5;35.3;;;;;;
83777;SPS30;74444;48.226;16.348;2023-12-28T04:01:21;38.1;;39.6;35.2;;;;;;
83777;SPS30;74444;48.226;16.348;2023-12-28T04:06:21;37.3;;38.9;34.2;;;;;;
83777;SPS30;74444;48.226;16.348;2023-12-28T04:11:21;39.9;;41.5;36.7;;;;;;
83777;SPS30;74444;48.226;16.348;2023-12-28T04:16:21;39.1;;41.1;35.7;;;;;;
83777;SPS30;74444;48.226;16.348;2023-12-28T04:21:21;38.8;;40.6;35.7;;;;;;
83777;SPS30;74444;48.226;16.348;2023-12-28T04:26:21;39.8;;41.7;36.5;;;;;;
83777;SPS30;74444;48.226;16.348;2023-12-28T04:31:21;39.2;;41.0;35.9;;;;;;
83777;SPS30;74444;48.226;16.348;2023-12-28T04:36:21;39.7;;41.8;36.1;;;;;;
83777;SPS30;74444;48.226;16.348;2023-12-28T04:41:21;39.8;;42.0;36.3;;;;;;
83777;SPS30;74444;48.226;16.348;2023-12-28T04:46:21;39.2;;41.2;35.8;;;;;;
83777;SPS30;74444;48.226;16.348;2023-12-28T04:51:21;38.8;;41.3;35.0;;;;;;
83777;SPS30;74444;48.226;16.348;2023-12-28T04:56:21;38.0;;40.0;34.6;;;;;;
83777;SPS30;74444;48.226;16.348;2023-12-28T05:01:21;40.2;;42.1;36.9;;;;;;
83777;SPS30;74444;48.226;16.348;2023-12-28T05:06:21;40.5;;42.2;37.4;;;;;;
83777;SPS30;74444;48.226;16.348;2023-12-28T05:11:21;40.5;;42.6;36.9;;;;;;
83777;SPS30;74444;48.226;16.348;2023-12-28T05:16:21;39.9;;42.0;36.5;;;;;;
83777;SPS30;74444;48.226;16.348;2023-12-28T05:21:21;41.4;;43.7;37.6;;;;;;
83777;SPS30;74444;48.226;16.348;2023-12-28T05:26:21;41.1;;42.6;38.0;;;;;;
83777;SPS30;74444;48.226;16.348;2023-12-28T05:31:21;42.7;;44.6;39.3;;;;;;
83777;SPS30;74444;48.226;16.348;2023-12-28T05:36:21;42.5;;45.3;38.4;;;;;;
83777;SPS30;74444;48.226;16.348;2023-12-28T05:41:21;40.5;;42.6;36.9;;;;;;
83777;SPS30;74444;48.226;16.348;2023-12-28T05:46:21;42.0;;44.0;38.4;;;;;;
83777;SPS30;74444;48.226;16.348;2023-12-28T05:51:21;41.9;;44.1;38.2;;;;;;
83777;SPS30;74444;48.226;16.348;2023-12-28T05:56:21;43.0;;45.5;39.0;;;;;;
83777;SPS30;74444;48.226;16.348;2023-12-28T06:01:21;43.8;;46.1;39.9;;;;;;
83777;SPS30;74444;48.226;16.348;2023-12-28T06:06:21;43.6;;46.1;39.6;;;;;;
83777;SPS30;74444;48.226;16.348;2023-12-28T06:11:21;43.2;;46.3;38.8;;;;;;
83777;SPS30;74444;48.226;16.348;2023-12-28T06:16:21;46.1;;50.1;40.9;;;;;;
83777;SPS30;74444;48.226;16.348;2023-12-28T06:21:21;45.1;;47.8;40.8;;;;;;
83777;SPS30;74444;48.226;16.348;2023-12-28T06:26:21;44.8;;47.6;40.5;;;;;;
83777;SPS30;74444;48.226;16.348;2023-12-28T06:31:21;45.3;;48.9;40.4;;;;;;
83777;SPS30;74444;48.226;16.348;2023-12-28T06:36:21;44.2;;47.2;39.7;;;;;;
83777;SPS30;74444;48.226;16.348;2023-12-28T06:41:21;44.9;;48.0;40.5;;;;;;
83777;SPS30;74444;48.226;16.348;2023-12-28T06:46:21;44.1;;47.4;39.5;;;;;;
83777;SPS30;74444;48.226;16.348;2023-12-28T06:51:21;43.8;;46.8;39.5;;;;;;
83777;SPS30;74444;48.226;16.348;2023-12-28T06:56:21;45.8;;49.0;41.2;;;;;;
83777;SPS30;74444;48.226;16.348;2023-12-28T07:01:21;43.8;;46.5;39.7;;;;;;
83777;SPS30;74444;48.226;16.348;2023-12-28T07:06:21;44.9;;48.5;40.0;;;;;;
83777;SPS30;74444;48.226;16.348;2023-12-28T07:11:21;42.8;;45.7;38.4;;;;;;
83777;SPS30;74444;48.226;16.348;2023-12-28T07:16:21;45.8;;48.9;41.3;;;;;;
83777;SPS30;74444;48.226;16.348;2023-12-28T07:21:21;45.3;;48.6;40.6;;;;;;
83777;SPS30;74444;48.226;16.348;2023-12-28T07:26:21;73.5;;81.2;63.9;;;;;;
83777;SPS30;74444;48.226;16.348;2023-12-28T07:31:24;45.9;;49.5;41.0;;;;;;
83777;SPS30;74444;48.226;16.348;2023-12-28T07:36:21;44.2;;48.1;39.0;;;;;;
83777;SPS30;74444;48.226;16.348;2023-12-28T07:41:21;44.7;;48.4;39.6;;;;;;
83777;SPS30;74444;48.226;16.348;2023-12-28T07:46:21;43.5;;46.9;38.7;;;;;;
83777;SPS30;74444;48.226;16.348;2023-12-28T07:51:21;42.0;;44.2;38.4;;;;;;
83777;SPS30;74444;48.226;16.348;2023-12-28T07:56:21;40.9;;43.9;36.7;;;;;;
83777;SPS30;74444;48.226;16.348;2023-12-28T08:01:21;40.6;;43.4;36.6;;;;;;
83777;SPS30;74444;48.226;16.348;2023-12-28T08:06:21;41.0;;43.5;37.0;;;;;;
83777;SPS30;74444;48.226;16.348;2023-12-28T08:11:21;41.4;;44.0;37.4;;;;;;
83777;SPS30;74444;48.226;16.348;2023-12-28T08:16:21;38.7;;40.7;35.3;;;;;;
83777;SPS30;74444;48.226;16.348;2023-12-28T08:21:21;37.9;;40.1;34.4;;;;;;
83777;SPS30;74444;48.226;16.348;2023-12-28T08:26:21;37.7;;40.3;33.8;;;;;;
83777;SPS30;74444;48.226;16.348;2023-12-28T08:31:21;37.1;;39.7;33.3;;;;;;
83777;SPS30;74444;48.226;16.348;2023-12-28T08:36:21;39.2;;42.0;35.2;;;;;;
83777;SPS30;74444;48.226;16.348;2023-12-28T08:41:21;42.4;;44.4;38.8;;;;;;
83777;SPS30;74444;48.226;16.348;2023-12-28T08:46:21;39.2;;41.6;35.5;;;;;;
83777;SPS30;74444;48.226;16.348;2023-12-28T08:51:21;38.8;;40.8;35.4;;;;;;
83777;SPS30;74444;48.226;16.348;2023-12-28T08:56:21;37.9;;40.5;34.1;;;;;;
83777;SPS30;74444;48.226;16.348;2023-12-28T09:01:21;38.0;;40.0;34.6;;;;;;
83777;SPS30;74444;48.226;16.348;2023-12-28T09:06:21;37.6;;39.9;34.0;;;;;;
83777;SPS30;74444;48.226;16.348;2023-12-28T09:11:21;36.4;;39.1;32.5;;;;;;
83777;SPS30;74444;48.226;16.348;2023-12-28T09:16:21;37.1;;39.9;33.2;;;;;;
83777;SPS30;74444;48.226;16.348;2023-12-28T09:21:21;36.2;;38.6;32.6;;;;;;
83777;SPS30;74444;48.226;16.348;2023-12-28T09:26:21;34.9;;37.3;31.4;;;;;;
83777;SPS30;74444;48.226;16.348;2023-12-28T09:31:21;34.4;;36.6;31.2;;;;;;
83777;SPS30;74444;48.226;16.348;2023-12-28T09:36:21;33.2;;35.5;29.8;;;;;;
83777;SPS30;74444;48.226;16.348;2023-12-28T09:41:21;32.5;;33.8;29.9;;;;;;
83777;SPS30;74444;48.226;16.348;2023-12-28T09:46:21;34.2;;36.1;31.1;;;;;;
83777;SPS30;74444;48.226;16.348;2023-12-28T09:51:21;32.6;;34.7;29.3;;;;;;
83777;SPS30;74444;48.226;16.348;2023-12-28T09:56:21;33.1;;34.9;30.1;;;;;;
83777;SPS30;74444;48.226;16.348;2023-12-28T10:01:21;32.9;;34.7;29.9;;;;;;
83777;SPS30;74444;48.226;16.348;2023-12-28T10:06:21;33.2;;35.6;29.8;;;;;;
83777;SPS30;74444;48.226;16.348;2023-12-28T10:11:21;33.7;;36.2;30.2;;;;;;
83777;SPS30;74444;48.226;16.348;2023-12-28T10:16:21;31.6;;33.2;28.9;;;;;;
83777;SPS30;74444;48.226;16.348;2023-12-28T10:21:22;34.3;;36.7;30.8;;;;;;
83777;SPS30;74444;48.226;16.348;2023-12-28T10:26:21;35.4;;37.9;31.8;;;;;;
83777;SPS30;74444;48.226;16.348;2023-12-28T10:31:21;31.6;;33.7;28.5;;;;;;
83777;SPS30;74444;48.226;16.348;2023-12-28T10:36:21;31.8;;33.7;28.8;;;;;;
83777;SPS30;74444;48.226;16.348;2023-12-28T10:41:21;33.6;;35.4;30.6;;;;;;
83777;SPS30;74444;48.226;16.348;2023-12-28T10:46:24;32.3;;34.3;29.3;;;;;;
83777;SPS30;74444;48.226;16.348;2023-12-28T10:51:21;33.2;;35.5;29.9;;;;;;
83777;SPS30;74444;48.226;16.348;2023-12-28T10:56:23;32.4;;34.3;29.4;;;;;;
83777;SPS30;74444;48.226;16.348;2023-12-28T11:01:22;32.1;;34.2;28.9;;;;;;
83777;SPS30;74444;48.226;16.348;2023-12-28T11:06:21;34.9;;37.9;30.9;;;;;;
83777;SPS30;74444;48.226;16.348;2023-12-28T11:11:21;32.7;;34.6;29.6;;;;;;
83777;SPS30;74444;48.226;16.348;2023-12-28T11:16:21;33.0;;35.3;29.6;;;;;;
83777;SPS30;74444;48.226;16.348;2023-12-28T11:21:21;30.6;;33.0;27.3;;;;;;
83777;SPS30;74444;48.226;16.348;2023-12-28T11:26:21;31.3;;33.0;28.5;;;;;;
83777;SPS30;74444;48.226;16.348;2023-12-28T11:31:21;32.1;;34.9;28.3;;;;;;
83777;SPS30;74444;48.226;16.348;2023-12-28T11:36:23;33.6;;36.0;30.1;;;;;;
83777;SPS30;74444;48.226;16.348;2023-12-28T11:41:21;32.5;;34.5;29.4;;;;;;
83777;SPS30;74444;48.226;16.348;2023-12-28T11:46:21;37.6;;40.1;33.9;;;;;;
83777;SPS30;74444;48.226;16.348;2023-12-28T11:51:21;30.8;;32.2;28.3;;;;;;
83777;SPS30;74444;48.226;16.348;2023-12-28T11:56:21;30.2;;32.0;27.4;;;;;;
83777;SPS30;74444;48.226;16.348;2023-12-28T12:01:21;31.4;;33.7;28.1;;;;;;
83777;SPS30;74444;48.226;16.348;2023-12-28T12:06:21;29.8;;32.0;26.7;;;;;;
83777;SPS30;74444;48.226;16.348;2023-12-28T12:11:21;28.9;;30.5;26.3;;;;;;
83777;SPS30;74444;48.226;16.348;2023-12-28T12:16:21;30.2;;32.0;27.3;;;;;;
83777;SPS30;74444;48.226;16.348;2023-12-28T12:21:21;29.9;;31.6;27.1;;;;;;
83777;SPS30;74444;48.226;16.348;2023-12-28T12:26:21;29.6;;31.6;26.8;;;;;;
83777;SPS30;74444;48.226;16.348;2023-12-28T12:31:21;29.9;;31.9;26.9;;;;;;
83777;SPS30;74444;48.226;16.348;2023-12-28T12:36:21;28.6;;30.5;25.8;;;;;;
83777;SPS30;74444;48.226;16.348;2023-12-28T12:41:21;28.5;;30.1;25.9;;;;;;
83777;SPS30;74444;48.226;16.348;2023-12-28T12:46:21;28.6;;30.5;25.8;;;;;;
83777;SPS30;74444;48.226;16.348;2023-12-28T12:51:21;29.6;;31.5;26.8;;;;;;
83777;SPS30;74444;48.226;16.348;2023-12-28T12:56:21;30.0;;31.8;27.1;;;;;;
83777;SPS30;74444;48.226;16.348;2023-12-28T13:01:21;28.1;;30.2;25.2;;;;;;
83777;SPS30;74444;48.226;16.348;2023-12-28T13:06:21;27.6;;29.4;25.0;;;;;;
83777;SPS30;74444;48.226;16.348;2023-12-28T13:11:21;30.6;;32.0;28.0;;;;;;
83777;SPS30;74444;48.226;16.348;2023-12-28T13:16:21;30.4;;32.5;27.2;;;;;;
83777;SPS30;74444;48.226;16.348;2023-12-28T13:21:21;30.9;;33.0;27.8;;;;;;
83777;SPS30;74444;48.226;16.348;2023-12-28T13:26:21;73.1;;78.7;65.4;;;;;;
83777;SPS30;74444;48.226;16.348;2023-12-28T13:31:21;30.0;;31.7;27.3;;;;;;
83777;SPS30;74444;48.226;16.348;2023-12-28T13:36:21;28.9;;30.7;26.2;;;;;;
83777;SPS30;74444;48.226;16.348;2023-12-28T13:41:22;27.8;;29.6;25.0;;;;;;
83777;SPS30;74444;48.226;16.348;2023-12-28T13:46:21;27.6;;30.2;24.3;;;;;;
83777;SPS30;74444;48.226;16.348;2023-12-28T13:51:21;27.8;;29.7;24.9;;;;;;
83777;SPS30;74444;48.226;16.348;2023-12-28T13:56:21;26.1;;28.0;23.4;;;;;;
83777;SPS30;74444;48.226;16.348;2023-12-28T14:01:21;25.8;;27.5;23.3;;;;;;
83777;SPS30;74444;48.226;16.348;2023-12-28T14:06:21;27.5;;29.0;25.1;;;;;;
83777;SPS30;74444;48.226;16.348;2023-12-28T14:11:21;29.2;;31.5;26.1;;;;;;
83777;SPS30;74444;48.226;16.348;2023-12-28T14:16:21;28.4;;30.1;25.7;;;;;;
83777;SPS30;74444;48.226;16.348;2023-12-28T14:21:21;29.3;;31.7;26.1;;;;;;
83777;SPS30;74444;48.226;16.348;2023-12-28T14:26:21;29.8;;31.9;26.7;;;;;;
83777;SPS30;74444;48.226;16.348;2023-12-28T14:31:21;31.4;;33.6;28.3;;;;;;
83777;SPS30;74444;48.226;16.348;2023-12-28T14:36:23;31.7;;33.9;28.5;;;;;;
83777;SPS30;74444;48.226;16.348;2023-12-28T14:41:21;30.9;;32.3;28.4;;;;;;
83777;SPS30;74444;48.226;16.348;2023-12-28T14:46:21;32.5;;34.4;29.5;;;;;;
83777;SPS30;74444;48.226;16.348;2023-12-28T14:51:21;34.9;;37.5;31.3;;;;;;
83777;SPS30;74444;48.226;16.348;2023-12-28T14:56:21;33.2;;35.7;29.6;;;;;;
83777;SPS30;74444;48.226;16.348;2023-12-28T15:01:21;34.9;;37.2;31.6;;;;;;
83777;SPS30;74444;48.226;16.348;2023-12-28T15:06:21;36.2;;38.3;32.8;;;;;;
83777;SPS30;74444;48.226;16.348;2023-12-28T15:11:21;36.2;;38.9;32.4;;;;;;
83777;SPS30;74444;48.226;16.348;2023-12-28T15:16:21;34.5;;36.6;31.2;;;;;;
83777;SPS30;74444;48.226;16.348;2023-12-28T15:21:21;36.3;;38.9;32.5;;;;;;
83777;SPS30;74444;48.226;16.348;2023-12-28T15:26:21;36.9;;39.7;33.0;;;;;;
83777;SPS30;74444;48.226;16.348;2023-12-28T15:31:21;38.2;;40.5;34.6;;;;;;
83777;SPS30;74444;48.226;16.348;2023-12-28T15:36:21;38.1;;40.7;34.3;;;;;;
83777;SPS30;74444;48.226;16.348;2023-12-28T15:41:21;38.6;;41.3;34.7;;;;;;
83777;SPS30;74444;48.226;16.348;2023-12-28T15:46:21;38.6;;41.2;34.7;;;;;;
83777;SPS30;74444;48.226;16.348;2023-12-28T15:51:21;37.9;;40.5;34.1;;;;;;
83777;SPS30;74444;48.226;16.348;2023-12-28T15:56:21;41.5;;44.3;37.4;;;;;;
83777;SPS30;74444;48.226;16.348;2023-12-28T16:01:21;39.2;;42.1;35.1;;;;;;
83777;SPS30;74444;48.226;16.348;2023-12-28T16:06:21;39.3;;42.0;35.4;;;;;;
83777;SPS30;74444;48.226;16.348;2023-12-28T16:11:21;42.3;;45.2;38.0;;;;;;
83777;SPS30;74444;48.226;16.348;2023-12-28T16:16:21;40.8;;43.7;36.7;;;;;;
83777;SPS30;74444;48.226;16.348;2023-12-28T16:21:21;41.2;;43.9;37.1;;;;;;
83777;SPS30;74444;48.226;16.348;2023-12-28T16:26:21;40.6;;43.1;36.8;;;;;;
83777;SPS30;74444;48.226;16.348;2023-12-28T16:31:21;38.7;;41.2;34.9;;;;;;
83777;SPS30;74444;48.226;16.348;2023-12-28T16:36:21;39.8;;42.5;35.8;;;;;;
83777;SPS30;74444;48.226;16.348;2023-12-28T16:41:21;37.2;;39.7;33.6;;;;;;
83777;SPS30;74444;48.226;16.348;2023-12-28T16:46:21;39.6;;42.7;35.4;;;;;;
83777;SPS30;74444;48.226;16.348;2023-12-28T16:51:21;39.7;;41.5;36.4;;;;;;
83777;SPS30;74444;48.226;16.348;2023-12-28T16:56:21;38.6;;40.9;34.9;;;;;;
83777;SPS30;74444;48.226;16.348;2023-12-28T17:01:21;41.1;;43.0;37.7;;;;;;
83777;SPS30;74444;48.226;16.348;2023-12-28T17:06:21;46.2;;49.3;41.7;;;;;;
83777;SPS30;74444;48.226;16.348;2023-12-28T17:11:21;42.1;;44.6;38.1;;;;;;
83777;SPS30;74444;48.226;16.348;2023-12-28T17:16:22;43.2;;45.7;39.2;;;;;;
83777;SPS30;74444;48.226;16.348;2023-12-28T17:21:23;49.4;;51.9;45.1;;;;;;
83777;SPS30;74444;48.226;16.348;2023-12-28T17:26:22;52.8;;56.3;47.6;;;;;;
83777;SPS30;74444;48.226;16.348;2023-12-28T17:31:21;42.7;;44.5;39.2;;;;;;
83777;SPS30;74444;48.226;16.348;2023-12-28T17:36:21;39.7;;41.5;36.4;;;;;;
83777;SPS30;74444;48.226;16.348;2023-12-28T17:41:21;45.1;;47.0;41.5;;;;;;
83777;SPS30;74444;48.226;16.348;2023-12-28T17:46:23;43.0;;45.0;39.4;;;;;;
83777;SPS30;74444;48.226;16.348;2023-12-28T17:51:21;47.7;;49.9;43.8;;;;;;
83777;SPS30;74444;48.226;16.348;2023-12-28T17:56:21;42.2;;44.3;38.5;;;;;;
83777;SPS30;74444;48.226;16.348;2023-12-28T18:01:21;41.7;;44.1;37.9;;;;;;
83777;SPS30;74444;48.226;16.348;2023-12-28T18:06:21;42.6;;44.7;38.8;;;;;;
83777;SPS30;74444;48.226;16.348;2023-12-28T18:11:21;42.7;;45.0;39.0;;;;;;
83777;SPS30;74444;48.226;16.348;2023-12-28T18:16:21;46.5;;48.8;42.6;;;;;;
83777;SPS30;74444;48.226;16.348;2023-12-28T18:21:21;44.8;;47.6;40.5;;;;;;
83777;SPS30;74444;48.226;16.348;2023-12-28T18:26:21;42.7;;45.1;38.9;;;;;;
83777;SPS30;74444;48.226;16.348;2023-12-28T18:31:21;48.0;;50.8;43.5;;;;;;
83777;SPS30;74444;48.226;16.348;2023-12-28T18:36:21;45.4;;48.0;41.1;;;;;;
83777;SPS30;74444;48.226;16.348;2023-12-28T18:41:21;48.7;;51.4;44.3;;;;;;
83777;SPS30;74444;48.226;16.348;2023-12-28T18:46:21;50.5;;53.2;46.0;;;;;;
83777;SPS30;74444;48.226;16.348;2023-12-28T18:51:21;47.9;;51.1;43.1;;;;;;
83777;SPS30;74444;48.226;16.348;2023-12-28T18:56:21;46.5;;49.3;42.1;;;;;;
83777;SPS30;74444;48.226;16.348;2023-12-28T19:01:21;44.9;;47.0;41.2;;;;;;
83777;SPS30;74444;48.226;16.348;2023-12-28T19:06:21;45.9;;49.0;41.3;;;;;;
83777;SPS30;74444;48.226;16.348;2023-12-28T19:11:21;48.6;;51.7;43.9;;;;;;
83777;SPS30;74444;48.226;16.348;2023-12-28T19:16:21;47.2;;48.8;43.7;;;;;;
83777;SPS30;74444;48.226;16.348;2023-12-28T19:21:21;43.5;;45.7;39.7;;;;;;
83777;SPS30;74444;48.226;16.348;2023-12-28T19:26:21;44.7;;46.9;40.9;;;;;;
83777;SPS30;74444;48.226;16.348;2023-12-28T19:31:21;41.9;;43.5;38.7;;;;;;
83777;SPS30;74444;48.226;16.348;2023-12-28T19:36:21;42.0;;44.5;38.2;;;;;;
83777;SPS30;74444;48.226;16.348;2023-12-28T19:41:21;40.6;;42.7;37.1;;;;;;
83777;SPS30;74444;48.226;16.348;2023-12-28T19:46:21;40.5;;43.2;36.5;;;;;;
83777;SPS30;74444;48.226;16.348;2023-12-28T19:51:21;42.2;;44.3;38.5;;;;;;
83777;SPS30;74444;48.226;16.348;2023-12-28T19:56:21;40.3;;42.2;36.9;;;;;;
83777;SPS30;74444;48.226;16.348;2023-12-28T20:01:21;39.6;;41.3;36.5;;;;;;
83777;SPS30;74444;48.226;16.348;2023-12-28T20:06:21;40.4;;42.6;36.8;;;;;;
83777;SPS30;74444;48.226;16.348;2023-12-28T20:11:21;42.7;;44.6;39.3;;;;;;
83777;SPS30;74444;48.226;16.348;2023-12-28T20:16:21;45.6;;48.1;41.5;;;;;;
83777;SPS30;74444;48.226;16.348;2023-12-28T20:21:21;43.9;;46.2;40.0;;;;;;
83777;SPS30;74444;48.226;16.348;2023-12-28T20:26:21;42.5;;44.3;39.2;;;;;;
83777;SPS30;74444;48.226;16.348;2023-12-28T20:31:21;45.5;;48.2;41.2;;;;;;
83777;SPS30;74444;48.226;16.348;2023-12-28T20:36:21;45.5;;47.7;41.6;;;;;;
83777;SPS30;74444;48.226;16.348;2023-12-28T20:41:21;52.5;;55.1;48.0;;;;;;
83777;SPS30;74444;48.226;16.348;2023-12-28T20:46:21;46.8;;48.9;42.9;;;;;;
83777;SPS30;74444;48.226;16.348;2023-12-28T20:51:21;44.8;;47.6;40.5;;;;;;
83777;SPS30;74444;48.226;16.348;2023-12-28T20:56:21;44.6;;46.7;40.9;;;;;;
83777;SPS30;74444;48.226;16.348;2023-12-28T21:01:21;44.0;;46.1;40.2;;;;;;
83777;SPS30;74444;48.226;16.348;2023-12-28T21:06:21;45.7;;48.1;41.7;;;;;;
83777;SPS30;74444;48.226;16.348;2023-12-28T21:11:21;43.3;;45.5;39.6;;;;;;
83777;SPS30;74444;48.226;16.348;2023-12-28T21:16:21;44.0;;46.3;40.1;;;;;;
83777;SPS30;74444;48.226;16.348;2023-12-28T21:21:21;43.4;;45.8;39.5;;;;;;
83777;SPS30;74444;48.226;16.348;2023-12-28T21:26:21;44.9;;47.3;40.9;;;;;;
83777;SPS30;74444;48.226;16.348;2023-12-28T21:31:21;41.3;;43.1;37.9;;;;;;
83777;SPS30;74444;48.226;16.348;2023-12-28T21:36:21;43.6;;46.1;39.6;;;;;;
83777;SPS30;74444;48.226;16.348;2023-12-28T21:41:21;40.3;;42.6;36.6;;;;;;
83777;SPS30;74444;48.226;16.348;2023-12-28T21:46:21;43.6;;45.6;39.9;;;;;;
83777;SPS30;74444;48.226;16.348;2023-12-28T21:51:21;43.1;;45.3;39.4;;;;;;
83777;SPS30;74444;48.226;16.348;2023-12-28T21:56:21;41.5;;43.6;38.0;;;;;;
83777;SPS30;74444;48.226;16.348;2023-12-28T22:01:21;38.5;;40.2;35.3;;;;;;
83777;SPS30;74444;48.226;16.348;2023-12-28T22:06:21;38.9;;41.3;35.3;;;;;;
83777;SPS30;74444;48.226;16.348;2023-12-28T22:11:21;38.7;;40.5;35.4;;;;;;
83777;SPS30;74444;48.226;16.348;2023-12-28T22:16:21;36.8;;38.4;33.8;;;;;;
83777;SPS30;74444;48.226;16.348;2023-12-28T22:21:21;41.2;;43.1;37.7;;;;;;
83777;SPS30;74444;48.226;16.348;2023-12-28T22:26:21;40.7;;42.9;37.2;;;;;;
83777;SPS30;74444;48.226;16.348;2023-12-28T22:31:22;39.5;;41.2;36.4;;;;;;
83777;SPS30;74444;48.226;16.348;2023-12-28T22:36:21;38.2;;40.4;34.7;;;;;;
83777;SPS30;74444;48.226;16.348;2023-12-28T22:41:21;36.6;;38.0;33.8;;;;;;
83777;SPS30;74444;48.226;16.348;2023-12-28T22:46:21;36.9;;38.6;33.9;;;;;;
83777;SPS30;74444;48.226;16.348;2023-12-28T22:51:21;36.4;;38.1;33.3;;;;;;
83777;SPS30;74444;48.226;16.348;2023-12-28T22:56:21;36.7;;38.4;33.7;;;;;;
83777;SPS30;74444;48.226;16.348;2023-12-28T23:01:21;37.0;;38.9;33.9;;;;;;
83777;SPS30;74444;48.226;16.348;2023-12-28T23:06:23;36.5;;38.0;33.7;;;;;;
83777;SPS30;74444;48.226;16.348;2023-12-28T23:11:21;35.5;;37.1;32.6;;;;;;
83777;SPS30;74444;48.226;16.348;2023-12-28T23:16:21;36.0;;37.5;33.1;;;;;;
83777;SPS30;74444;48.226;16.348;2023-12-28T23:21:21;37.5;;39.9;33.8;;;;;;
83777;SPS30;74444;48.226;16.348;2023-12-28T23:26:21;36.2;;38.3;32.9;;;;;;
83777;SPS30;74444;48.226;16.348;2023-12-28T23:31:21;37.9;;39.8;34.6;;;;;;
83777;SPS30;74444;48.226;16.348;2023-12-28T23:36:21;36.8;;38.4;33.8;;;;;;
83777;SPS30;74444;48.226;16.348;2023-12-28T23:41:21;34.0;;35.1;31.5;;;;;;
83777;SPS30;74444;48.226;16.348;2023-12-28T23:46:21;34.5;;35.6;31.9;;;;;;
83777;SPS30;74444;48.226;16.348;2023-12-28T23:51:21;32.9;;34.8;29.9;;;;;;
83777;SPS30;74444;48.226;16.348;2023-12-28T23:56:21;32.8;;33.9;30.4;;;;;;
